Time;durP1;ratioP1;P1;durP2;ratioP2;P2;SDS_P1;SDS_P2;PMS_P1;PMS_P2;Temp;Humidity;BMP_temperature;BMP_pressure;BME280_temperature;BME280_humidity;BME280_pressure;Samples;Min_cycle;Max_cycle;Signal;HPM_P1;HPM_P2
2022/01/31 05:00:29;;;;;;;18.33;4.22;;;3.60;99.90;;;;;;6038832;23;21475;31
2022/01/31 05:02:56;;;;;;;10.55;3.33;;;3.70;99.90;;;;;;4918928;29;20233;-69
2022/01/31 05:05:23;;;;;;;11.05;3.92;;;3.70;99.90;;;;;;4933474;29;20209;-69
2022/01/31 05:07:52;;;;;;;11.82;4.25;;;3.70;99.90;;;;;;4933674;29;20281;-69
2022/01/31 05:10:19;;;;;;;18.90;4.40;;;3.70;99.90;;;;;;4927614;29;20201;-68
2022/01/31 05:12:46;;;;;;;7.50;3.00;;;3.60;99.90;;;;;;4933616;29;20273;-68
2022/01/31 05:15:13;;;;;;;10.77;3.45;;;3.70;99.90;;;;;;4918933;29;20207;-68
2022/01/31 05:17:41;;;;;;;9.07;2.85;;;3.60;99.90;;;;;;4914336;29;20211;-69
2022/01/31 05:20:08;;;;;;;5.32;2.88;;;3.70;99.90;;;;;;4914057;29;20731;-68
2022/01/31 05:22:35;;;;;;;7.65;4.60;;;3.60;99.90;;;;;;4928084;29;20776;-69
2022/01/31 05:25:02;;;;;;;5.03;1.98;;;3.60;99.90;;;;;;4912673;29;20210;-69
2022/01/31 05:27:29;;;;;;;14.50;3.92;;;3.60;99.90;;;;;;4915500;29;20262;-69
2022/01/31 05:29:55;;;;;;;10.45;2.22;;;3.60;99.90;;;;;;4946460;23;20291;-68
2022/01/31 05:32:22;;;;;;;12.77;3.35;;;3.50;99.90;;;;;;4952406;28;20209;-68
2022/01/31 05:34:50;;;;;;;5.03;3.40;;;3.50;99.90;;;;;;4952737;28;20572;-69
2022/01/31 05:37:17;;;;;;;10.07;2.80;;;3.50;99.90;;;;;;4952631;28;20666;-68
2022/01/31 05:39:45;;;;;;;14.93;3.67;;;3.60;99.90;;;;;;4953824;28;20297;-68
2022/01/31 05:42:12;;;;;;;12.15;3.55;;;3.60;99.90;;;;;;4952422;28;20701;-68
2022/01/31 05:44:39;;;;;;;20.52;4.82;;;3.60;99.90;;;;;;4960973;28;20665;-68
2022/01/31 05:47:06;;;;;;;9.65;3.53;;;3.70;99.90;;;;;;4969270;28;20618;-68
2022/01/31 05:49:33;;;;;;;7.03;3.40;;;3.70;99.90;;;;;;4971026;28;20708;-69
2022/01/31 05:52:04;;;;;;;10.82;3.20;;;3.70;99.90;;;;;;4962386;28;20280;-68
2022/01/31 05:54:32;;;;;;;7.88;4.18;;;3.70;99.90;;;;;;4959143;28;20291;-68
2022/01/31 05:57:00;;;;;;;13.68;4.13;;;3.70;99.90;;;;;;4969600;28;20776;-68
2022/01/31 05:59:27;;;;;;;11.25;3.25;;;3.70;99.90;;;;;;4969754;28;20220;-68
2022/01/31 06:01:54;;;;;;;9.00;4.05;;;3.80;99.90;;;;;;4958998;28;20706;-68
2022/01/31 06:04:21;;;;;;;8.75;4.03;;;3.80;99.90;;;;;;4955195;28;20201;-69
2022/01/31 06:06:47;;;;;;;7.47;3.40;;;3.80;99.90;;;;;;4968799;28;20206;-68
2022/01/31 06:09:15;;;;;;;8.57;3.55;;;3.80;99.90;;;;;;4974624;28;20209;-68
2022/01/31 06:11:44;;;;;;;13.07;3.60;;;3.80;99.90;;;;;;4974101;28;20220;-68
2022/01/31 06:14:11;;;;;;;10.68;3.67;;;3.80;99.90;;;;;;4971677;28;20224;-68
2022/01/31 06:16:38;;;;;;;12.93;4.15;;;3.80;99.90;;;;;;4974451;28;20204;-68
2022/01/31 06:19:04;;;;;;;8.50;2.10;;;3.70;99.90;;;;;;4974738;28;20289;-68
2022/01/31 06:21:31;;;;;;;8.77;3.40;;;3.70;99.90;;;;;;4973709;28;20232;-68
2022/01/31 06:23:58;;;;;;;8.23;3.35;;;3.70;99.90;;;;;;4975035;28;20583;-69
2022/01/31 06:26:27;;;;;;;16.00;4.00;;;3.60;99.90;;;;;;4974086;28;20682;-69
2022/01/31 06:28:54;;;;;;;13.40;4.50;;;3.60;99.90;;;;;;4974679;28;20285;-68
2022/01/31 06:31:20;;;;;;;10.32;4.72;;;3.50;99.90;;;;;;4972993;28;20663;-68
2022/01/31 06:33:47;;;;;;;11.65;4.13;;;3.50;99.90;;;;;;4974719;28;20209;-69
2022/01/31 06:36:14;;;;;;;9.55;3.90;;;3.50;99.90;;;;;;4974007;28;20630;-68
2022/01/31 06:38:40;;;;;;;9.68;5.00;;;3.40;99.90;;;;;;4970792;28;20639;-69
2022/01/31 06:41:08;;;;;;;12.10;4.50;;;3.40;99.90;;;;;;4973059;28;20639;-69
2022/01/31 06:43:36;;;;;;;6.88;3.90;;;3.40;99.90;;;;;;4964929;28;20232;-68
2022/01/31 06:46:03;;;;;;;10.95;4.00;;;3.40;99.90;;;;;;4973836;28;20801;-69
2022/01/31 06:48:30;;;;;;;8.55;3.85;;;3.40;99.90;;;;;;4973626;28;20674;-68
2022/01/31 06:50:56;;;;;;;10.40;4.05;;;3.30;99.90;;;;;;4973401;28;20715;-68
2022/01/31 06:53:27;;;;;;;12.98;4.38;;;3.30;99.90;;;;;;4974262;28;20580;-68
2022/01/31 06:55:53;;;;;;;9.35;4.05;;;3.30;99.90;;;;;;4960299;28;20245;-69
2022/01/31 06:58:20;;;;;;;15.75;4.43;;;3.20;99.90;;;;;;4973823;28;20243;-68
2022/01/31 07:00:49;;;;;;;4.20;2.90;;;3.20;99.90;;;;;;4964087;28;20220;-68
2022/01/31 07:03:15;;;;;;;9.65;3.90;;;3.10;99.90;;;;;;4973581;28;20232;-68
2022/01/31 07:05:43;;;;;;;13.43;3.88;;;3.10;99.90;;;;;;4955337;28;20205;-68
2022/01/31 07:08:10;;;;;;;8.40;3.60;;;3.00;99.90;;;;;;4962452;28;20208;-67
2022/01/31 07:10:38;;;;;;;12.30;4.65;;;3.00;99.90;;;;;;4968056;28;20275;-68
2022/01/31 07:13:12;;;;;;;12.48;4.18;;;3.00;99.90;;;;;;4973849;28;20212;-67
2022/01/31 07:15:39;;;;;;;13.30;4.60;;;3.00;99.90;;;;;;4972938;28;20248;-68
2022/01/31 07:18:07;;;;;;;8.98;3.90;;;3.00;99.90;;;;;;4971944;28;20255;-67
2022/01/31 07:20:38;;;;;;;9.30;3.92;;;3.00;99.90;;;;;;4972837;28;20224;-67
2022/01/31 07:23:10;;;;;;;16.90;4.10;;;2.90;99.90;;;;;;4973887;28;20232;-68
2022/01/31 07:25:37;;;;;;;12.52;3.95;;;2.90;99.90;;;;;;4972091;28;20631;-68
2022/01/31 07:28:07;;;;;;;13.93;4.40;;;2.80;99.90;;;;;;4973772;28;20601;-68
2022/01/31 07:30:34;;;;;;;10.13;3.85;;;2.80;99.90;;;;;;4972509;28;20287;-67
2022/01/31 07:33:02;;;;;;;12.07;4.80;;;2.80;99.90;;;;;;4973627;28;20644;-68
2022/01/31 07:35:30;;;;;;;12.95;4.45;;;2.80;99.90;;;;;;4972785;28;20635;-67
2022/01/31 07:37:57;;;;;;;14.82;4.53;;;2.80;99.90;;;;;;4970898;28;20274;-67
2022/01/31 07:40:24;;;;;;;8.45;4.38;;;2.80;99.90;;;;;;4973279;28;20238;-68
2022/01/31 07:42:51;;;;;;;12.80;4.47;;;2.70;99.90;;;;;;4971801;28;20220;-68
2022/01/31 07:45:17;;;;;;;14.52;5.47;;;2.70;99.90;;;;;;4972633;28;20665;-67
2022/01/31 07:47:44;;;;;;;10.05;4.65;;;2.70;99.90;;;;;;4971971;28;20200;-67
2022/01/31 07:50:12;;;;;;;15.05;5.10;;;2.60;99.90;;;;;;4972741;28;20224;-67
2022/01/31 07:52:41;;;;;;;8.98;3.80;;;2.60;99.90;;;;;;4970087;28;20650;-67
2022/01/31 07:55:10;;;;;;;10.73;4.88;;;2.60;99.90;;;;;;4960153;28;20202;-68
2022/01/31 07:57:38;;;;;;;11.07;4.22;;;2.60;99.90;;;;;;4959414;28;20204;-68
2022/01/31 08:00:06;;;;;;;12.23;4.82;;;2.60;99.90;;;;;;4972462;28;20235;-67
2022/01/31 08:02:33;;;;;;;10.30;4.22;;;2.60;99.90;;;;;;4972510;28;20235;-66
2022/01/31 08:05:00;;;;;;;6.15;5.05;;;2.60;99.90;;;;;;4971685;28;20213;-68
2022/01/31 08:07:26;;;;;;;14.13;4.45;;;2.60;99.90;;;;;;4967240;28;20216;-67
2022/01/31 08:09:54;;;;;;;5.78;3.58;;;2.60;99.90;;;;;;4972747;28;20224;-67
2022/01/31 08:12:22;;;;;;;5.57;4.35;;;2.60;99.90;;;;;;4972992;28;20220;-67
2022/01/31 08:14:49;;;;;;;5.35;4.57;;;2.60;99.90;;;;;;4970410;28;20212;-68
2022/01/31 08:17:16;;;;;;;12.13;4.63;;;2.60;99.90;;;;;;4964028;28;20215;-68
2022/01/31 08:19:43;;;;;;;9.35;4.07;;;2.70;99.90;;;;;;4964024;28;20211;-68
2022/01/31 08:22:10;;;;;;;6.22;4.20;;;2.70;99.90;;;;;;4967642;28;20740;-68
2022/01/31 08:24:36;;;;;;;12.25;6.10;;;2.70;99.90;;;;;;4965182;28;20217;-67
2022/01/31 08:27:04;;;;;;;8.68;5.43;;;2.70;99.90;;;;;;4971687;28;20205;-67
2022/01/31 08:29:35;;;;;;;10.00;4.55;;;2.70;99.90;;;;;;4966573;28;20640;-68
2022/01/31 08:32:06;;;;;;;3.80;3.30;;;2.70;99.90;;;;;;4964380;28;20740;-66
2022/01/31 08:37:14;;;;;;;6.15;5.30;;;2.70;99.90;;;;;;4967945;28;20217;-67
2022/01/31 08:39:42;;;;;;;10.85;5.35;;;2.70;99.90;;;;;;4963558;28;20211;-67
2022/01/31 08:42:10;;;;;;;7.57;4.60;;;2.80;99.90;;;;;;4970804;28;20212;-67
2022/01/31 08:44:37;;;;;;;11.85;5.15;;;2.90;99.90;;;;;;4958082;28;20236;-67
2022/01/31 08:47:04;;;;;;;8.50;5.32;;;2.90;99.90;;;;;;4970844;28;20200;-66
2022/01/31 08:49:35;;;;;;;16.88;6.13;;;2.90;99.90;;;;;;4961006;28;20284;-67
2022/01/31 08:52:02;;;;;;;10.85;5.38;;;2.90;99.90;;;;;;4964067;28;20217;-67
2022/01/31 08:54:29;;;;;;;8.88;6.20;;;2.90;99.90;;;;;;4967315;28;20571;-67
2022/01/31 08:56:55;;;;;;;10.63;4.93;;;2.90;99.90;;;;;;4962357;28;20224;-68
2022/01/31 08:59:25;;;;;;;9.68;5.57;;;2.90;99.90;;;;;;4963868;28;20204;-67
2022/01/31 09:02:03;;;;;;;11.73;5.65;;;3.00;99.90;;;;;;4965613;28;20615;-67
2022/01/31 09:04:34;;;;;;;8.32;5.78;;;3.00;99.90;;;;;;4964790;28;20220;-67
2022/01/31 09:07:03;;;;;;;8.88;5.85;;;3.00;99.90;;;;;;4967599;28;20240;-67
2022/01/31 09:09:30;;;;;;;11.80;5.80;;;3.00;99.90;;;;;;4969980;28;20205;-68
2022/01/31 09:11:58;;;;;;;11.02;6.53;;;3.00;99.90;;;;;;4969893;28;20212;-68
2022/01/31 09:14:26;;;;;;;11.95;6.35;;;3.10;99.90;;;;;;4971062;28;20268;-67
2022/01/31 09:16:53;;;;;;;10.43;5.80;;;3.10;99.90;;;;;;4968885;28;20212;-67
2022/01/31 09:19:20;;;;;;;10.82;5.95;;;3.20;99.90;;;;;;4970631;28;20204;-67
2022/01/31 09:21:47;;;;;;;8.40;5.90;;;3.20;99.90;;;;;;4960369;28;20268;-68
2022/01/31 09:24:14;;;;;;;8.88;6.32;;;3.20;99.90;;;;;;4961361;28;20706;-68
2022/01/31 09:26:40;;;;;;;7.45;5.38;;;3.20;99.90;;;;;;4952737;28;20213;-66
2022/01/31 09:29:07;;;;;;;11.73;5.30;;;3.10;99.90;;;;;;4968767;28;20201;-68
2022/01/31 09:31:35;;;;;;;7.35;5.20;;;3.10;99.90;;;;;;4971779;28;20232;-68
2022/01/31 09:34:02;;;;;;;10.57;6.20;;;3.20;99.90;;;;;;4971199;28;20253;-69
2022/01/31 09:36:28;;;;;;;9.95;5.90;;;3.20;99.90;;;;;;4971055;28;20590;-66
2022/01/31 09:38:55;;;;;;;5.88;5.30;;;3.30;99.90;;;;;;4970869;28;20255;-67
2022/01/31 09:41:25;;;;;;;7.60;5.45;;;3.30;99.90;;;;;;4972150;28;20229;-67
2022/01/31 09:46:52;;;;;;;12.27;5.85;;;3.40;99.90;;;;;;4963711;28;20252;-67
2022/01/31 09:49:22;;;;;;;14.02;5.18;;;3.50;99.90;;;;;;4968508;28;20307;-68
2022/01/31 09:51:49;;;;;;;10.45;6.20;;;3.50;99.90;;;;;;4974914;28;20815;-68
2022/01/31 09:54:16;;;;;;;16.00;5.72;;;3.50;99.90;;;;;;4975139;28;20248;-68
2022/01/31 09:56:45;;;;;;;10.35;6.78;;;3.50;99.90;;;;;;4975487;28;20204;-68
2022/01/31 09:59:14;;;;;;;6.72;5.47;;;3.50;99.90;;;;;;4974883;28;20208;-68
2022/01/31 10:01:46;;;;;;;8.15;6.15;;;3.60;99.90;;;;;;4975171;28;20232;-68
2022/01/31 10:04:17;;;;;;;9.80;5.80;;;3.50;99.90;;;;;;4975234;28;20224;-68
2022/01/31 10:06:45;;;;;;;9.18;6.05;;;3.50;99.90;;;;;;4974370;28;20200;-68
2022/01/31 10:09:14;;;;;;;10.07;6.30;;;3.50;99.90;;;;;;4959279;28;20228;-67
2022/01/31 10:11:47;;;;;;;10.70;6.72;;;3.60;99.90;;;;;;4963411;28;20236;-67
2022/01/31 10:17:11;;;;;;;24.17;10.82;;;3.70;99.90;;;;;;4975133;28;20556;-68
2022/01/31 10:19:43;;;;;;;7.80;6.10;;;3.80;99.90;;;;;;4974146;28;20263;-68
2022/01/31 10:22:12;;;;;;;9.77;7.50;;;3.80;99.90;;;;;;4974761;28;20211;-67
2022/01/31 10:24:41;;;;;;;35.20;18.65;;;3.80;99.90;;;;;;4971567;28;20614;-68
2022/01/31 10:27:14;;;;;;;21.73;11.38;;;3.80;99.90;;;;;;4955696;28;20676;-67
2022/01/31 10:29:42;;;;;;;7.65;6.22;;;3.80;99.90;;;;;;4954875;28;20525;-67
2022/01/31 10:32:12;;;;;;;23.77;13.30;;;3.70;99.90;;;;;;4966243;28;20229;-66
2022/01/31 10:34:41;;;;;;;16.80;10.25;;;3.80;99.90;;;;;;4974149;28;20287;-68
2022/01/31 10:37:12;;;;;;;13.32;9.77;;;3.80;99.90;;;;;;4974833;28;20212;-68
2022/01/31 10:45:27;;;;;;;20.52;14.27;;;3.90;99.90;;;;;;4973955;28;20678;-67
2022/01/31 10:53:53;;;;;;;5.80;4.85;;;3.90;99.90;;;;;;4964966;28;20219;-68
2022/01/31 10:56:20;;;;;;;6.07;5.47;;;3.80;99.90;;;;;;4974686;28;20258;-68
2022/01/31 10:59:01;;;;;;;5.88;4.03;;;3.80;99.90;;;;;;4975467;28;20213;-67
2022/01/31 11:01:30;;;;;;;14.82;5.93;;;3.80;99.90;;;;;;4976017;28;20231;-67
2022/01/31 11:04:03;;;;;;;9.63;6.10;;;3.90;99.90;;;;;;4976596;28;20237;-68
2022/01/31 11:06:30;;;;;;;8.60;6.10;;;3.80;99.90;;;;;;4976092;28;20200;-66
2022/01/31 11:09:02;;;;;;;6.38;5.65;;;3.80;99.90;;;;;;4972627;28;20213;-67
2022/01/31 11:11:29;;;;;;;8.15;4.35;;;3.90;99.90;;;;;;4972650;28;20225;-68
2022/01/31 11:13:56;;;;;;;8.77;5.88;;;3.90;99.90;;;;;;4974240;28;20205;-68
2022/01/31 11:16:24;;;;;;;6.07;5.43;;;3.90;99.90;;;;;;4956114;28;20216;-67
2022/01/31 11:18:51;;;;;;;9.35;6.18;;;4.00;99.90;;;;;;4954745;28;20581;-67
2022/01/31 11:21:24;;;;;;;9.73;6.80;;;4.00;99.90;;;;;;4958133;28;20220;-68
2022/01/31 11:23:52;;;;;;;9.82;5.90;;;4.00;99.90;;;;;;4973983;28;20324;-67
2022/01/31 11:26:22;;;;;;;8.52;6.93;;;4.00;99.90;;;;;;4973931;28;20581;-67
2022/01/31 11:28:50;;;;;;;14.48;8.70;;;4.10;99.90;;;;;;4971953;28;20204;-67
2022/01/31 11:31:17;;;;;;;6.80;5.80;;;4.10;99.90;;;;;;4971538;28;20244;-67
2022/01/31 11:33:46;;;;;;;7.07;6.25;;;4.10;99.90;;;;;;4962075;28;20196;-68
2022/01/31 11:36:13;;;;;;;8.00;6.32;;;4.10;99.90;;;;;;4962366;28;20268;-68
2022/01/31 11:38:43;;;;;;;6.53;5.93;;;4.20;99.90;;;;;;4970390;28;20263;-67
2022/01/31 11:41:10;;;;;;;10.13;5.80;;;4.20;99.90;;;;;;4962738;28;20224;-68
2022/01/31 11:43:38;;;;;;;7.55;5.95;;;4.20;99.90;;;;;;4964935;28;20224;-68
2022/01/31 11:46:07;;;;;;;8.52;6.25;;;4.20;99.90;;;;;;4967018;28;20216;-68
2022/01/31 11:48:38;;;;;;;6.57;5.22;;;4.20;99.90;;;;;;4973306;28;20673;-69
2022/01/31 11:51:05;;;;;;;10.98;6.07;;;4.20;99.90;;;;;;4972066;28;20228;-69
2022/01/31 11:53:34;;;;;;;6.60;6.00;;;4.20;99.90;;;;;;4973318;28;20291;-68
2022/01/31 11:56:08;;;;;;;6.70;5.80;;;4.20;99.90;;;;;;4961228;28;20271;-69
2022/01/31 11:58:45;;;;;;;11.00;6.70;;;4.20;99.90;;;;;;4971262;28;20205;-69
2022/01/31 12:01:12;;;;;;;12.75;6.60;;;4.20;99.90;;;;;;4971865;28;20235;-69
2022/01/31 12:03:50;;;;;;;6.90;6.20;;;4.20;99.90;;;;;;4970206;28;20693;-69
2022/01/31 12:06:21;;;;;;;7.78;6.18;;;4.20;99.90;;;;;;4973215;28;20263;-68
2022/01/31 12:08:50;;;;;;;13.68;8.15;;;4.20;99.90;;;;;;4972058;28;20208;-69
2022/01/31 12:11:24;;;;;;;10.25;6.72;;;4.20;99.90;;;;;;4968453;28;20315;-68
2022/01/31 12:13:55;;;;;;;11.88;7.03;;;4.10;99.90;;;;;;4971546;28;20202;-68
2022/01/31 12:16:50;;;;;;;11.63;7.47;;;4.10;99.90;;;;;;4972360;28;20589;-69
2022/01/31 12:19:45;;;;;;;11.85;6.85;;;4.00;99.90;;;;;;4972706;28;20212;-68
2022/01/31 12:22:48;;;;;;;12.95;7.32;;;4.00;99.90;;;;;;4972258;28;20208;-68
2022/01/31 12:25:24;;;;;;;8.57;6.40;;;4.00;99.90;;;;;;4972617;28;20708;-68
2022/01/31 12:27:52;;;;;;;6.95;6.28;;;4.10;99.90;;;;;;4972059;28;20288;-68
2022/01/31 12:30:34;;;;;;;11.43;6.35;;;4.00;99.90;;;;;;4963816;28;20241;-68
2022/01/31 12:33:01;;;;;;;10.07;6.40;;;4.10;99.90;;;;;;4965914;28;20256;-69
2022/01/31 12:35:37;;;;;;;11.68;6.85;;;4.10;99.90;;;;;;4959878;28;20622;-69
2022/01/31 12:38:05;;;;;;;10.40;7.05;;;4.00;99.90;;;;;;4964413;28;20682;-69
2022/01/31 12:40:40;;;;;;;8.32;5.53;;;4.00;99.90;;;;;;4968968;28;20228;-69
2022/01/31 12:43:24;;;;;;;6.63;5.53;;;4.00;99.90;;;;;;4963452;28;20252;-69
2022/01/31 12:46:18;;;;;;;8.45;6.05;;;4.00;99.90;;;;;;4971797;28;20227;-68
2022/01/31 12:49:06;;;;;;;6.13;5.50;;;4.00;99.90;;;;;;4971712;28;20210;-68
2022/01/31 12:52:01;;;;;;;5.38;4.88;;;4.00;99.90;;;;;;4971984;28;20366;-68
2022/01/31 12:54:27;;;;;;;6.40;5.18;;;4.00;99.90;;;;;;4971750;28;20607;-69
2022/01/31 12:56:54;;;;;;;8.27;4.82;;;4.00;99.90;;;;;;4972265;28;20596;-68
2022/01/31 12:59:22;;;;;;;7.47;5.03;;;4.00;99.90;;;;;;4971590;28;20851;-69
2022/01/31 13:01:51;;;;;;;4.78;4.35;;;4.00;99.90;;;;;;4971192;28;20228;-68
2022/01/31 13:04:21;;;;;;;6.85;5.68;;;4.00;99.90;;;;;;4971184;28;20224;-68
2022/01/31 13:06:49;;;;;;;6.55;4.20;;;4.00;99.90;;;;;;4971663;28;20287;-67
2022/01/31 13:09:19;;;;;;;5.22;3.97;;;4.00;99.90;;;;;;4971659;28;20228;-67
2022/01/31 13:11:48;;;;;;;3.67;3.25;;;4.00;99.90;;;;;;4970951;28;20232;-68
2022/01/31 13:14:17;;;;;;;7.80;5.20;;;3.90;99.90;;;;;;4970198;28;20296;-67
2022/01/31 13:17:02;;;;;;;6.13;4.47;;;3.90;99.90;;;;;;4958814;28;20630;-68
2022/01/31 13:19:32;;;;;;;4.80;4.40;;;3.90;99.90;;;;;;4959593;28;20649;-68
2022/01/31 13:22:00;;;;;;;6.10;3.95;;;3.90;99.90;;;;;;4969457;28;20228;-68
2022/01/31 13:24:35;;;;;;;4.00;3.70;;;3.90;99.90;;;;;;4971663;28;20228;-68
2022/01/31 13:27:03;;;;;;;5.40;4.95;;;4.00;99.90;;;;;;4963621;28;20204;-68
2022/01/31 13:29:39;;;;;;;8.98;4.90;;;4.00;99.90;;;;;;4956581;28;20638;-68
2022/01/31 13:32:30;;;;;;;4.47;4.13;;;4.00;99.90;;;;;;4970958;28;20220;-69
2022/01/31 13:34:59;;;;;;;4.47;4.18;;;4.10;99.90;;;;;;4963553;28;20239;-68
2022/01/31 13:37:44;;;;;;;6.05;3.80;;;4.20;99.90;;;;;;4971528;28;20247;-68
2022/01/31 13:40:15;;;;;;;3.97;3.67;;;4.20;99.90;;;;;;4971624;28;20691;-68
2022/01/31 13:42:43;;;;;;;5.05;4.55;;;4.20;99.90;;;;;;4964150;28;20220;-68
2022/01/31 13:45:18;;;;;;;6.35;4.72;;;4.20;99.90;;;;;;4972581;28;20247;-68
2022/01/31 13:47:53;;;;;;;5.63;5.10;;;4.20;99.90;;;;;;4969742;28;20366;-68
2022/01/31 13:50:25;;;;;;;5.78;5.18;;;4.30;99.90;;;;;;4972344;28;20338;-68
2022/01/31 13:52:54;;;;;;;5.05;4.38;;;4.30;99.90;;;;;;4972483;28;20295;-67
2022/01/31 13:55:21;;;;;;;4.95;3.90;;;4.30;99.90;;;;;;4973553;28;20200;-67
2022/01/31 13:57:48;;;;;;;5.07;4.65;;;4.30;99.90;;;;;;4971994;28;20220;-68
2022/01/31 14:00:16;;;;;;;6.07;4.93;;;4.30;99.90;;;;;;4971219;28;20220;-68
2022/01/31 14:05:37;;;;;;;6.40;5.15;;;4.30;99.90;;;;;;5103859;27;20540;-67
2022/01/31 14:08:06;;;;;;;6.30;5.03;;;4.20;99.90;;;;;;5087487;28;20216;-68
2022/01/31 14:10:35;;;;;;;5.97;5.47;;;4.20;99.90;;;;;;5091997;28;20638;-68
2022/01/31 14:13:04;;;;;;;6.43;5.63;;;4.20;99.90;;;;;;5107364;28;20370;-68
2022/01/31 14:15:39;;;;;;;5.60;5.05;;;4.30;99.90;;;;;;5097832;28;20196;-68
2022/01/31 14:18:08;;;;;;;6.93;6.22;;;4.20;99.90;;;;;;5087721;28;20266;-68
2022/01/31 14:20:37;;;;;;;7.10;6.40;;;4.20;99.90;;;;;;5087348;28;20274;-68
2022/01/31 14:23:04;;;;;;;7.68;6.20;;;4.20;99.90;;;;;;5088145;28;20200;-68
2022/01/31 14:25:41;;;;;;;9.57;6.28;;;4.20;99.90;;;;;;5087361;28;20875;-68
2022/01/31 14:28:10;;;;;;;10.40;7.07;;;4.20;99.90;;;;;;5087729;28;20279;-68
2022/01/31 14:30:45;;;;;;;9.40;7.93;;;4.20;99.90;;;;;;5087124;28;20651;-67
2022/01/31 14:33:12;;;;;;;10.43;7.00;;;4.20;99.90;;;;;;5097074;28;20204;-68
2022/01/31 14:35:40;;;;;;;8.93;7.00;;;4.10;99.90;;;;;;5103034;28;20228;-67
2022/01/31 14:38:16;;;;;;;8.95;6.60;;;4.10;99.90;;;;;;5104075;28;20196;-68
2022/01/31 14:41:10;;;;;;;11.80;7.18;;;4.10;99.90;;;;;;5095415;28;20220;-67
2022/01/31 14:49:12;;;;;;;10.18;9.13;;;4.00;99.90;;;;;;5087097;28;20253;-66
2022/01/31 14:51:42;;;;;;;11.18;7.78;;;4.00;99.90;;;;;;5104647;28;20232;-66
2022/01/31 14:54:11;;;;;;;12.05;7.90;;;4.10;99.90;;;;;;5087849;28;20673;-67
2022/01/31 14:56:40;;;;;;;10.63;6.97;;;4.10;99.90;;;;;;5091786;28;20265;-67
2022/01/31 14:59:08;;;;;;;11.20;8.68;;;4.10;99.90;;;;;;5101864;28;20196;-66
2022/01/31 15:01:36;;;;;;;15.05;9.27;;;4.10;99.90;;;;;;5086731;28;20842;-67
2022/01/31 15:04:03;;;;;;;11.57;9.32;;;4.10;99.90;;;;;;5094728;28;20224;-67
2022/01/31 15:06:30;;;;;;;13.05;8.68;;;4.00;99.90;;;;;;5087055;28;20636;-67
2022/01/31 15:08:58;;;;;;;20.33;9.63;;;4.00;99.90;;;;;;5094849;28;20208;-67
2022/01/31 15:11:25;;;;;;;10.85;7.55;;;4.10;99.90;;;;;;5094453;28;20293;-67
2022/01/31 15:13:54;;;;;;;18.05;9.48;;;4.10;99.90;;;;;;5096258;28;20254;-67
2022/01/31 15:16:26;;;;;;;8.95;8.05;;;4.10;99.90;;;;;;5076518;28;20216;-68
2022/01/31 15:18:53;;;;;;;25.33;10.63;;;4.10;99.90;;;;;;5082032;28;20201;-67
2022/01/31 15:21:21;;;;;;;14.80;10.18;;;4.00;99.90;;;;;;5086475;28;20225;-68
2022/01/31 15:23:52;;;;;;;12.07;9.07;;;4.00;99.90;;;;;;5073335;28;20206;-66
2022/01/31 15:26:21;;;;;;;12.65;8.77;;;4.00;99.90;;;;;;5090236;28;20208;-68
2022/01/31 15:28:49;;;;;;;20.83;8.38;;;4.00;99.90;;;;;;5083241;28;20212;-68
2022/01/31 15:31:17;;;;;;;19.27;9.15;;;4.00;99.90;;;;;;5089082;28;20228;-68
2022/01/31 15:33:44;;;;;;;16.77;9.23;;;4.00;99.90;;;;;;5088868;28;20295;-68
2022/01/31 15:36:12;;;;;;;16.77;10.15;;;4.00;99.90;;;;;;5093106;28;20258;-67
2022/01/31 15:38:39;;;;;;;13.05;8.35;;;4.00;99.90;;;;;;5084929;28;20209;-68
2022/01/31 15:41:07;;;;;;;20.20;9.35;;;4.00;99.90;;;;;;5091271;28;20255;-68
2022/01/31 15:43:36;;;;;;;13.02;8.52;;;4.00;99.90;;;;;;5087084;28;20212;-67
2022/01/31 15:46:05;;;;;;;17.15;7.85;;;4.00;99.90;;;;;;5080341;28;20201;-68
2022/01/31 15:48:32;;;;;;;15.45;8.98;;;4.10;99.90;;;;;;5081784;28;20205;-68
2022/01/31 15:50:58;;;;;;;15.18;9.13;;;4.10;99.90;;;;;;5082026;28;20244;-67
2022/01/31 15:53:25;;;;;;;19.40;8.10;;;4.00;99.90;;;;;;5079349;28;20209;-68
2022/01/31 15:55:52;;;;;;;16.75;8.70;;;4.00;99.90;;;;;;5077316;28;20619;-68
2022/01/31 15:58:21;;;;;;;14.95;7.72;;;4.00;99.90;;;;;;5078373;28;20209;-68
2022/01/31 16:00:51;;;;;;;15.30;8.68;;;4.00;99.90;;;;;;5086709;28;20351;-68
2022/01/31 16:03:18;;;;;;;14.38;8.32;;;4.10;99.90;;;;;;5082055;28;20204;-68
2022/01/31 16:05:46;;;;;;;14.75;7.78;;;4.00;99.90;;;;;;5076127;28;20274;-67
2022/01/31 16:08:13;;;;;;;17.02;9.13;;;4.00;99.90;;;;;;5078346;28;20261;-67
2022/01/31 16:10:45;;;;;;;16.15;7.80;;;4.10;99.90;;;;;;5074797;28;20310;-68
2022/01/31 16:13:13;;;;;;;15.18;7.82;;;4.10;99.90;;;;;;5091382;28;20653;-68
2022/01/31 16:15:41;;;;;;;10.45;7.13;;;4.10;99.90;;;;;;5068115;28;20283;-67
2022/01/31 16:18:09;;;;;;;17.00;7.78;;;4.10;99.90;;;;;;5067786;28;20299;-67
2022/01/31 16:20:36;;;;;;;12.57;7.38;;;4.10;99.90;;;;;;5081747;28;20216;-67
2022/01/31 16:23:03;;;;;;;12.82;7.93;;;4.10;99.90;;;;;;5088896;28;20197;-67
2022/01/31 16:25:29;;;;;;;14.15;7.78;;;4.10;99.90;;;;;;5080813;28;20631;-67
2022/01/31 16:28:02;;;;;;;22.75;10.40;;;4.10;99.90;;;;;;5070922;28;20215;-67
2022/01/31 16:30:30;;;;;;;17.55;9.45;;;4.10;99.90;;;;;;5078768;28;20224;-69
2022/01/31 16:32:57;;;;;;;15.95;7.85;;;4.10;99.90;;;;;;5079118;28;20279;-66
2022/01/31 16:35:25;;;;;;;18.10;7.95;;;4.10;99.90;;;;;;5079893;28;20594;-69
2022/01/31 16:37:52;;;;;;;15.50;9.25;;;4.10;99.90;;;;;;5089532;28;20955;-69
2022/01/31 16:40:19;;;;;;;15.73;7.93;;;4.10;99.90;;;;;;5070142;28;20237;-68
2022/01/31 16:42:46;;;;;;;14.50;7.70;;;4.00;99.90;;;;;;5086875;28;20250;-68
2022/01/31 16:45:15;;;;;;;8.40;7.22;;;4.10;99.90;;;;;;5077847;28;20536;-68
2022/01/31 16:47:45;;;;;;;16.52;7.10;;;4.00;99.90;;;;;;5081396;28;20208;-68
2022/01/31 16:50:12;;;;;;;11.63;7.95;;;4.10;99.90;;;;;;5079389;28;20227;-68
2022/01/31 16:52:42;;;;;;;24.67;9.85;;;4.00;99.90;;;;;;5087259;28;20301;-69
2022/01/31 16:55:11;;;;;;;20.98;8.45;;;4.00;99.90;;;;;;5083934;28;20205;-69
2022/01/31 16:57:38;;;;;;;19.20;8.38;;;4.00;99.90;;;;;;5084771;28;20227;-68
2022/01/31 17:00:07;;;;;;;16.05;8.90;;;4.00;99.90;;;;;;5083165;28;20227;-66
2022/01/31 17:02:33;;;;;;;14.35;7.35;;;4.00;99.90;;;;;;5087237;28;20209;-67
2022/01/31 17:05:00;;;;;;;14.27;9.45;;;4.00;99.90;;;;;;5084171;28;20586;-66
2022/01/31 17:07:27;;;;;;;13.60;8.25;;;4.00;99.90;;;;;;5077854;28;20213;-67
2022/01/31 17:09:55;;;;;;;20.02;8.05;;;4.00;99.90;;;;;;5078554;28;20204;-68
2022/01/31 17:12:25;;;;;;;14.57;7.85;;;4.00;99.90;;;;;;5084432;28;20608;-68
2022/01/31 17:14:52;;;;;;;12.93;7.65;;;4.00;99.90;;;;;;5073737;28;20223;-67
2022/01/31 17:17:19;;;;;;;15.23;7.65;;;4.00;99.90;;;;;;5073885;28;20209;-67
2022/01/31 17:19:46;;;;;;;13.60;7.75;;;4.00;99.90;;;;;;5079430;28;20205;-68
2022/01/31 17:22:13;;;;;;;15.20;8.05;;;4.00;99.90;;;;;;5082944;28;20605;-67
2022/01/31 17:24:40;;;;;;;13.80;8.45;;;4.00;99.90;;;;;;5086174;28;20248;-67
2022/01/31 17:27:08;;;;;;;16.05;8.68;;;4.00;99.90;;;;;;5066397;28;20209;-67
2022/01/31 17:29:34;;;;;;;14.30;10.25;;;4.00;99.90;;;;;;5064998;28;20827;-67
2022/01/31 17:32:01;;;;;;;13.38;7.82;;;4.10;99.90;;;;;;5069255;28;20224;-67
2022/01/31 17:34:28;;;;;;;14.38;7.78;;;4.10;99.90;;;;;;5069565;28;20578;-68
2022/01/31 17:36:54;;;;;;;16.65;9.45;;;4.10;99.90;;;;;;5082155;28;20200;-68
2022/01/31 17:39:21;;;;;;;14.65;9.40;;;4.10;99.90;;;;;;5080452;28;20201;-67
2022/01/31 17:41:52;;;;;;;13.30;10.02;;;4.10;99.90;;;;;;5078071;28;20213;-67
2022/01/31 17:44:24;;;;;;;18.80;10.38;;;4.10;99.90;;;;;;5079453;22;20225;-71
2022/01/31 17:46:51;;;;;;;18.85;9.73;;;4.10;99.90;;;;;;5048484;28;20212;-70
2022/01/31 17:49:18;;;;;;;15.93;10.73;;;4.10;99.90;;;;;;5049643;28;20206;-71
2022/01/31 17:51:45;;;;;;;21.25;11.95;;;4.10;99.90;;;;;;5047592;28;20258;-71
2022/01/31 17:54:12;;;;;;;19.42;11.38;;;4.20;99.90;;;;;;5054445;28;20253;-70
2022/01/31 17:56:39;;;;;;;17.52;8.75;;;4.20;99.90;;;;;;5061194;28;20206;-71
2022/01/31 17:59:06;;;;;;;11.57;9.57;;;4.20;99.90;;;;;;5063218;28;20710;-70
2022/01/31 18:01:35;;;;;;;15.77;10.23;;;4.20;99.90;;;;;;5050129;28;20716;-70
2022/01/31 18:04:01;;;;;;;18.48;9.15;;;4.20;99.90;;;;;;5056575;28;20226;-70
2022/01/31 18:06:30;;;;;;;14.25;8.50;;;4.20;99.90;;;;;;5050463;28;20230;-71
2022/01/31 18:08:57;;;;;;;14.57;8.77;;;4.20;99.90;;;;;;5060753;28;20207;-70
2022/01/31 18:11:24;;;;;;;13.50;8.13;;;4.20;99.90;;;;;;5050843;28;20202;-70
2022/01/31 18:13:51;;;;;;;9.13;7.15;;;4.20;99.90;;;;;;5054686;28;20243;-71
2022/01/31 18:16:18;;;;;;;19.70;9.55;;;4.20;99.90;;;;;;5052502;28;20763;-70
2022/01/31 18:18:46;;;;;;;15.88;9.88;;;4.20;99.90;;;;;;5056499;28;20245;-70
2022/01/31 18:21:12;;;;;;;15.88;10.25;;;4.20;99.90;;;;;;5059523;28;20597;-70
2022/01/31 18:23:40;;;;;;;14.15;9.60;;;4.20;99.90;;;;;;5041116;28;20690;-71
2022/01/31 18:26:07;;;;;;;23.08;10.18;;;4.20;99.90;;;;;;5036157;28;20329;-71
2022/01/31 18:28:35;;;;;;;11.23;9.07;;;4.20;99.90;;;;;;5053603;28;20202;-68